KWDG/WDG METAR and TAF weather

Enter ICAO airport designator
Station Type Date Time Source
KWDG METAR 2021/04/14 20:45 UTC NOAA

KWDG 142045Z 03008KT 10SM FEW070 OVC100 16/01 A3012


Station Type Date Time Source
KWDG Decoded METAR 2021/04/14 20:45 UTC NOAA

Enid, Enid Woodring Regional Airport, OK, United States (KWDG) 36-22-45N 097-47-28W
Apr 14, 2021 - 04:45 PM EDT / 2021.04.14 2045 UTC
Wind: from the NNE (030 degrees) at 9 MPH (8 KT):0
Visibility: 10 mile(s):0
Sky conditions: overcast
Temperature: 60 F (16 C)
Dew Point: 33 F (1 C)
Relative Humidity: 36%
Pressure (altimeter): 30.12 in. Hg (1019 hPa)
ob: KWDG 142045Z 03008KT 10SM FEW070 OVC100 16/01 A3012
cycle: 21

Station Type Date Time Source
KWDG TAF UTC NOAA

Error!

Example: see airport list